Time;durP1;ratioP1;P1;durP2;ratioP2;P2;SDS_P1;SDS_P2;PMS_P1;PMS_P2;Temp;Humidity;BMP_temperature;BMP_pressure;BME280_temperature;BME280_humidity;BME280_pressure;Samples;Min_cycle;Max_cycle;Signal;HPM_P1;HPM_P2
2022/09/28 00:00:18;;;;;;;4.15;1.42;;;;;;;7.31;nan;99434.06;5011839;28;20026;-59
2022/09/28 00:02:43;;;;;;;5.40;1.50;;;;;;;7.39;nan;99454.69;5011718;28;20508;-58
2022/09/28 00:05:11;;;;;;;3.92;1.30;;;;;;;7.45;nan;99466.66;5024599;28;20473;-56
2022/09/28 00:07:37;;;;;;;6.47;1.67;;;;;;;7.12;nan;99409.56;5014318;28;20404;-57
2022/09/28 00:10:02;;;;;;;4.57;1.85;;;;;;;7.14;nan;99414.75;5030411;28;20038;-54
2022/09/28 00:12:28;;;;;;;4.07;1.88;;;;;;;7.43;nan;99456.25;5031554;28;20033;-55
2022/09/28 00:14:54;;;;;;;6.13;1.73;;;;;;;7.43;nan;99456.25;5030088;28;20187;-55
2022/09/28 00:17:21;;;;;;;3.53;1.80;;;;;;;7.41;nan;99454.63;5031429;28;20132;-58
2022/09/28 00:19:47;;;;;;;6.93;1.90;;;;;;;7.32;nan;99453.25;5015029;28;20056;-56
2022/09/28 00:22:12;;;;;;;3.13;2.30;;;;;;;7.04;nan;99406.41;5025507;28;20038;-58
2022/09/28 00:24:37;;;;;;;8.32;2.08;;;;;;;7.12;nan;99437.50;5020430;28;20049;-56
2022/09/28 00:27:03;;;;;;;5.00;1.50;;;;;;;6.93;nan;99400.75;5018315;28;20473;-58
2022/09/28 00:29:33;;;;;;;6.97;2.00;;;;;;;7.37;nan;99461.75;5022223;28;20030;-58
2022/09/28 00:32:02;;;;;;;4.65;1.83;;;;;;;7.47;nan;99475.31;5026901;28;20022;-59
2022/09/28 00:34:30;;;;;;;5.40;1.77;;;;;;;7.52;nan;99482.06;5019548;28;20116;-56
2022/09/28 00:36:56;;;;;;;3.05;1.80;;;;;;;7.60;nan;99490.44;5019019;28;20473;-54
2022/09/28 00:39:22;;;;;;;7.55;1.77;;;;;;;7.52;nan;99461.13;5026348;28;20457;-57
2022/09/28 00:41:48;;;;;;;2.85;1.65;;;;;;;7.29;nan;99425.44;5016724;28;20072;-59
2022/09/28 00:44:25;;;;;;;5.07;1.70;;;;;;;7.73;nan;99496.91;5033402;28;20421;-57
2022/09/28 00:47:18;;;;;;;5.03;1.90;;;;;;;7.81;nan;99507.03;5034479;28;20037;-58
2022/09/28 00:49:58;;;;;;;6.63;2.22;;;;;;;7.64;nan;99460.63;5018400;28;20392;-57
2022/09/28 00:52:32;;;;;;;4.93;1.40;;;;;;;7.91;nan;99477.75;5026764;28;20026;-55
2022/09/28 00:55:00;;;;;;;9.60;1.65;;;;;;;7.94;nan;99474.16;5026121;28;20437;-56
2022/09/28 00:57:26;;;;;;;5.65;1.70;;;;;;;7.58;nan;99397.16;5029862;28;20041;-56
2022/09/28 00:59:52;;;;;;;3.70;1.45;;;;;;;7.93;nan;99454.13;5018253;28;20026;-57
2022/09/28 01:02:18;;;;;;;7.50;1.83;;;;;;;7.60;nan;99395.31;5034410;28;20044;-58
2022/09/28 01:04:43;;;;;;;3.88;1.50;;;;;;;7.81;nan;99426.69;5032759;28;20072;-57
2022/09/28 01:07:09;;;;;;;6.05;1.65;;;;;;;7.97;nan;99454.84;5020571;28;20041;-56
2022/09/28 01:09:37;;;;;;;2.80;1.45;;;;;;;8.01;nan;99462.50;5029839;28;20042;-59
2022/09/28 01:12:02;;;;;;;4.57;1.80;;;;;;;7.97;nan;99442.56;5018585;28;20028;-59
2022/09/28 01:14:28;;;;;;;3.03;1.65;;;;;;;8.07;nan;99469.22;5025892;28;20051;-58
2022/09/28 01:17:05;;;;;;;4.90;1.73;;;;;;;8.08;nan;99466.56;5025255;28;20128;-58
2022/09/28 01:19:44;;;;;;;7.13;2.33;;;;;;;8.07;nan;99461.38;5028737;28;20036;-59
2022/09/28 01:22:33;;;;;;;4.63;1.95;;;;;;;8.07;nan;99458.75;5020233;28;20060;-58
2022/09/28 01:25:10;;;;;;;5.45;1.83;;;;;;;7.74;nan;99396.44;5021513;28;20134;-59
2022/09/28 01:27:43;;;;;;;5.57;1.67;;;;;;;7.83;nan;99410.88;5030741;28;20063;-57
2022/09/28 01:30:17;;;;;;;7.68;1.90;;;;;;;7.75;nan;99381.56;5018824;28;20080;-57
2022/09/28 01:32:57;;;;;;;5.88;1.65;;;;;;;8.15;nan;99462.72;5032681;28;20076;-57
2022/09/28 01:35:38;;;;;;;5.22;2.20;;;;;;;7.89;nan;99406.25;5033757;28;20023;-58
2022/09/28 01:38:21;;;;;;;4.32;1.70;;;;;;;8.14;nan;99444.47;5033401;28;20022;-57
2022/09/28 01:40:47;;;;;;;2.90;1.70;;;;;;;7.76;nan;99373.63;5027120;28;20485;-58
2022/09/28 01:43:27;;;;;;;1.67;1.35;;;;;;;8.05;nan;99422.16;5027097;28;20047;-58
2022/09/28 01:45:57;;;;;;;2.97;1.70;;;;;;;8.11;nan;99458.56;5019011;28;20312;-59
2022/09/28 01:48:28;;;;;;;1.97;1.60;;;;;;;8.08;nan;99460.47;5014068;28;20485;-59
2022/09/28 01:50:56;;;;;;;8.10;1.58;;;;;;;7.97;nan;99441.75;5024447;28;20029;-58
2022/09/28 01:53:25;;;;;;;5.03;1.73;;;;;;;7.81;nan;99417.97;5031392;28;20033;-56
2022/09/28 01:55:54;;;;;;;3.50;1.83;;;;;;;7.97;nan;99453.06;5015966;28;20034;-58
2022/09/28 01:58:25;;;;;;;2.88;2.42;;;;;;;8.07;nan;99467.47;5044109;28;20030;-56
2022/09/28 02:00:58;;;;;;;8.18;2.67;;;;;;;7.97;nan;99446.97;5033637;28;20038;-57
2022/09/28 02:03:30;;;;;;;4.88;1.88;;;;;;;8.09;nan;99454.28;5031830;28;20476;-57
2022/09/28 02:06:00;;;;;;;4.60;2.00;;;;;;;7.72;nan;99389.56;5017533;28;20443;-56
2022/09/28 02:08:28;;;;;;;4.55;1.80;;;;;;;7.67;nan;99373.19;5033195;28;20480;-57
2022/09/28 02:11:01;;;;;;;4.07;2.20;;;;;;;8.13;nan;99448.00;5015744;28;20036;-58
2022/09/28 02:13:58;;;;;;;9.88;2.20;;;;;;;8.19;nan;99456.44;5015599;28;20034;-57
2022/09/28 02:16:41;;;;;;;5.55;2.00;;;;;;;8.13;nan;99441.00;5031059;28;20051;-58
2022/09/28 02:19:27;;;;;;;2.85;1.67;;;;;;;7.93;nan;99401.72;5038184;28;20476;-56
2022/09/28 02:21:59;;;;;;;7.15;1.80;;;;;;;7.86;nan;99387.19;5028819;28;20072;-58
2022/09/28 02:24:51;;;;;;;2.58;1.35;;;;;;;8.22;nan;99443.22;5021026;28;20037;-58
2022/09/28 02:27:28;;;;;;;5.30;1.10;;;;;;;8.23;nan;99444.88;5032618;28;20041;-59
2022/09/28 02:29:53;;;;;;;1.85;1.00;;;;;;;8.27;nan;99453.47;5031637;28;20449;-59
2022/09/28 02:32:19;;;;;;;6.65;1.30;;;;;;;7.87;nan;99391.50;5024467;28;20073;-57
2022/09/28 02:34:44;;;;;;;1.63;1.00;;;;;;;8.27;nan;99458.72;5013273;28;20066;-58
2022/09/28 02:37:10;;;;;;;2.67;1.05;;;;;;;8.31;nan;99466.44;5026676;28;20095;-59
2022/09/28 02:39:35;;;;;;;3.10;0.65;;;;;;;8.29;nan;99457.75;5031750;28;20053;-57
2022/09/28 02:42:15;;;;;;;2.88;1.02;;;;;;;8.25;nan;99452.69;5027926;28;20030;-57
2022/09/28 02:45:01;;;;;;;2.72;1.00;;;;;;;8.28;nan;99456.06;5021658;28;20116;-59
2022/09/28 02:47:49;;;;;;;5.68;1.30;;;;;;;8.27;nan;99454.34;5016188;28;20429;-59
2022/09/28 02:50:21;;;;;;;1.33;1.02;;;;;;;7.92;nan;99397.38;5026269;28;20523;-59
2022/09/28 02:52:52;;;;;;;4.68;1.23;;;;;;;8.26;nan;99457.84;5022402;28;20040;-59
2022/09/28 02:55:21;;;;;;;6.55;1.48;;;;;;;8.24;nan;99470.19;5017184;28;20037;-59
2022/09/28 02:58:06;;;;;;;3.33;1.02;;;;;;;8.15;nan;99444.38;5028973;28;20042;-58
2022/09/28 03:00:38;;;;;;;3.75;1.48;;;;;;;8.04;nan;99422.19;5020393;28;20472;-57
2022/09/28 03:03:10;;;;;;;3.42;1.60;;;;;;;8.21;nan;99465.09;5031090;28;20037;-58
2022/09/28 03:05:54;;;;;;;3.75;1.85;;;;;;;8.29;nan;99462.16;5031038;28;20443;-58
2022/09/28 03:08:28;;;;;;;4.78;1.33;;;;;;;8.12;nan;99439.28;5018736;28;20026;-58
2022/09/28 03:11:03;;;;;;;6.50;1.45;;;;;;;7.86;nan;99392.41;5014599;28;20080;-58
2022/09/28 03:13:29;;;;;;;5.47;1.48;;;;;;;8.21;nan;99464.22;5031938;28;20037;-57
2022/09/28 03:16:12;;;;;;;5.25;1.58;;;;;;;7.74;nan;99383.34;5014955;28;20138;-59
2022/09/28 03:18:38;;;;;;;2.85;1.20;;;;;;;8.13;nan;99450.63;5022351;28;20042;-58
2022/09/28 03:21:04;;;;;;;4.47;1.58;;;;;;;8.11;nan;99458.56;5012338;28;20040;-58
2022/09/28 03:23:29;;;;;;;3.67;1.42;;;;;;;8.09;nan;99472.63;5027894;28;20049;-59
2022/09/28 03:25:54;;;;;;;3.63;1.80;;;;;;;7.98;nan;99441.66;5028398;28;20374;-59
2022/09/28 03:28:20;;;;;;;3.78;1.67;;;;;;;7.99;nan;99453.00;5019420;28;20420;-59
2022/09/28 03:30:46;;;;;;;5.60;1.58;;;;;;;8.05;nan;99461.47;5021275;28;20455;-57
2022/09/28 03:33:11;;;;;;;5.47;2.13;;;;;;;7.87;nan;99425.56;5008711;28;20095;-58
2022/09/28 03:35:36;;;;;;;4.05;1.83;;;;;;;8.15;nan;99477.59;5029845;28;20120;-60
2022/09/28 03:38:02;;;;;;;3.92;1.83;;;;;;;8.13;nan;99467.19;5017006;28;20117;-58
2022/09/28 03:40:27;;;;;;;6.15;2.00;;;;;;;7.88;nan;99428.09;5023517;28;20117;-59
2022/09/28 03:42:52;;;;;;;3.45;2.00;;;;;;;7.94;nan;99434.84;5023050;28;20033;-61
2022/09/28 03:45:18;;;;;;;7.15;1.85;;;;;;;8.25;nan;99492.03;5016662;28;20452;-61
2022/09/28 03:47:47;;;;;;;5.28;2.05;;;;;;;8.21;nan;99464.22;5027047;28;20127;-59
2022/09/28 03:50:13;;;;;;;6.35;2.30;;;;;;;8.00;nan;99428.50;5016626;28;20037;-59
2022/09/28 03:52:39;;;;;;;5.07;2.63;;;;;;;8.33;nan;99479.44;5022120;28;20032;-60
2022/09/28 03:55:04;;;;;;;3.80;1.90;;;;;;;8.16;nan;99440.00;5023975;28;20037;-58
2022/09/28 03:57:29;;;;;;;3.92;1.80;;;;;;;8.31;nan;99453.31;5015281;28;20045;-59
2022/09/28 03:59:55;;;;;;;6.45;2.00;;;;;;;8.29;nan;99454.31;5027947;28;20034;-60
2022/09/28 04:02:20;;;;;;;3.72;1.73;;;;;;;8.24;nan;99458.84;5018855;28;20034;-59
2022/09/28 04:04:45;;;;;;;3.75;1.42;;;;;;;7.85;nan;99402.03;5026840;28;20065;-58
2022/09/28 04:07:11;;;;;;;7.80;1.83;;;;;;;8.14;nan;99457.56;5013330;28;20034;-59
2022/09/28 04:09:36;;;;;;;4.38;1.73;;;;;;;7.79;nan;99404.09;5015230;28;20036;-57
2022/09/28 04:12:01;;;;;;;1.60;1.30;;;;;;;7.85;nan;99428.25;5025464;28;20026;-58
2022/09/28 04:14:27;;;;;;;3.55;1.65;;;;;;;8.06;nan;99470.13;5019803;28;20049;-58
2022/09/28 04:16:53;;;;;;;2.72;1.30;;;;;;;7.74;nan;99406.06;5016318;28;20472;-58
2022/09/28 04:19:20;;;;;;;5.47;1.40;;;;;;;7.68;nan;99401.06;5035237;28;20033;-59
2022/09/28 04:21:45;;;;;;;4.68;1.30;;;;;;;7.61;nan;99403.13;5034003;28;20398;-59
2022/09/28 04:24:11;;;;;;;5.05;1.13;;;;;;;7.92;nan;99455.03;5029148;28;20076;-60
2022/09/28 04:26:37;;;;;;;3.53;1.20;;;;;;;7.86;nan;99450.91;5024993;28;20037;-59
2022/09/28 04:29:17;;;;;;;4.15;1.15;;;;;;;7.91;nan;99456.78;5034182;28;20037;-57
2022/09/28 04:31:51;;;;;;;4.35;1.10;;;;;;;8.04;nan;99470.22;5032729;28;20036;-60
2022/09/28 04:34:18;;;;;;;3.65;1.00;;;;;;;8.01;nan;99457.25;5020217;28;20044;-59
2022/09/28 04:36:44;;;;;;;1.58;0.85;;;;;;;7.96;nan;99459.22;5035083;28;20120;-58
2022/09/28 04:39:11;;;;;;;2.55;0.68;;;;;;;7.67;nan;99408.09;5017208;28;20125;-57
2022/09/28 04:41:36;;;;;;;2.28;0.70;;;;;;;7.88;nan;99450.84;5033453;28;20029;-59
2022/09/28 04:44:01;;;;;;;1.10;0.50;;;;;;;8.10;nan;99484.81;5019690;28;20041;-57
2022/09/28 04:46:27;;;;;;;2.65;0.80;;;;;;;7.78;nan;99425.97;5026565;28;20030;-58
2022/09/28 04:48:52;;;;;;;2.30;0.68;;;;;;;8.14;nan;99478.53;5026451;28;20037;-60
2022/09/28 04:51:17;;;;;;;3.03;0.80;;;;;;;8.16;nan;99479.31;5019670;28;20041;-59
2022/09/28 04:53:43;;;;;;;3.28;0.90;;;;;;;8.04;nan;99453.63;5031630;28;20052;-60
2022/09/28 04:56:12;;;;;;;1.95;0.85;;;;;;;8.18;nan;99480.09;5020444;28;20461;-58
2022/09/28 04:58:37;;;;;;;1.65;0.90;;;;;;;8.16;nan;99466.22;5028807;28;20465;-58
2022/09/28 05:01:05;;;;;;;0.90;0.75;;;;;;;8.20;nan;99460.75;5033263;28;20033;-58
2022/09/28 05:03:31;;;;;;;4.32;1.23;;;;;;;8.27;nan;99470.09;5033954;28;20026;-57
2022/09/28 05:05:56;;;;;;;4.65;1.00;;;;;;;8.23;nan;99457.16;5017758;28;20485;-58
2022/09/28 05:08:22;;;;;;;3.13;0.93;;;;;;;8.24;nan;99454.47;5033108;28;20026;-59
2022/09/28 05:10:48;;;;;;;4.30;0.98;;;;;;;8.22;nan;99456.31;5034483;28;20046;-59
2022/09/28 05:13:13;;;;;;;5.95;0.95;;;;;;;8.33;nan;99476.81;5033108;28;20041;-58
2022/09/28 05:15:40;;;;;;;2.53;0.80;;;;;;;7.92;nan;99411.34;5032712;28;20081;-58
2022/09/28 05:18:06;;;;;;;2.22;1.15;;;;;;;8.32;nan;99473.34;5018615;28;20033;-59
2022/09/28 05:20:31;;;;;;;3.03;0.77;;;;;;;8.09;nan;99439.41;5025732;28;20032;-59
2022/09/28 05:22:57;;;;;;;1.88;0.93;;;;;;;7.99;nan;99421.56;5026944;28;20485;-58
2022/09/28 05:25:23;;;;;;;1.73;0.80;;;;;;;8.38;nan;99499.28;5018325;28;20056;-59
2022/09/28 05:27:54;;;;;;;3.90;1.58;;;;;;;8.37;nan;99500.22;5029635;28;20038;-58
2022/09/28 05:30:20;;;;;;;1.58;0.50;;;;;;;8.35;nan;99494.19;5021405;28;20465;-58
2022/09/28 05:32:46;;;;;;;0.45;0.40;;;;;;;8.26;nan;99472.75;5023462;28;20041;-58
2022/09/28 05:35:11;;;;;;;0.40;0.40;;;;;;;8.32;nan;99482.97;5028383;28;20038;-58
2022/09/28 05:37:37;;;;;;;0.90;0.40;;;;;;;8.29;nan;99486.59;5017400;28;20056;-59
2022/09/28 05:40:03;;;;;;;0.93;0.43;;;;;;;8.00;nan;99423.28;5014513;28;20481;-59
2022/09/28 05:42:29;;;;;;;1.17;0.43;;;;;;;8.29;nan;99467.41;5022498;28;20035;-59
2022/09/28 05:44:54;;;;;;;1.52;0.40;;;;;;;8.14;nan;99463.66;5033787;28;20458;-59
2022/09/28 05:47:20;;;;;;;0.52;0.50;;;;;;;7.77;nan;99416.41;5028633;28;20030;-59
2022/09/28 05:49:45;;;;;;;2.67;0.63;;;;;;;8.09;nan;99472.63;5016610;28;20038;-59
2022/09/28 05:52:11;;;;;;;2.45;0.70;;;;;;;8.08;nan;99473.56;5027429;28;20092;-59
2022/09/28 05:54:36;;;;;;;0.68;0.50;;;;;;;8.01;nan;99474.75;5022221;28;20052;-59
2022/09/28 05:57:04;;;;;;;0.93;0.80;;;;;;;7.72;nan;99426.22;5020090;28;20037;-59
2022/09/28 05:59:29;;;;;;;2.15;0.90;;;;;;;7.59;nan;99410.19;5030214;28;20033;-59
2022/09/28 06:01:55;;;;;;;7.57;1.80;;;;;;;7.97;nan;99476.63;5017412;28;20025;-56
2022/09/28 06:04:21;;;;;;;8.13;2.60;;;;;;;7.56;nan;99399.84;5025771;28;20037;-58
2022/09/28 06:06:46;;;;;;;2.78;1.58;;;;;;;8.03;nan;99478.13;5024267;28;20041;-58
2022/09/28 06:09:11;;;;;;;1.48;1.02;;;;;;;8.12;nan;99480.34;5018343;28;20083;-55
2022/09/28 06:11:37;;;;;;;3.60;1.20;;;;;;;8.23;nan;99489.44;5028610;28;20060;-58
2022/09/28 06:14:03;;;;;;;2.40;1.33;;;;;;;7.99;nan;99422.41;5017886;28;20030;-57
2022/09/28 06:16:29;;;;;;;2.05;1.40;;;;;;;8.41;nan;99487.81;5024228;28;20076;-60
2022/09/28 06:18:55;;;;;;;3.58;1.30;;;;;;;8.41;nan;99469.47;5022942;28;20061;-58
2022/09/28 06:21:20;;;;;;;1.65;1.10;;;;;;;8.53;nan;99483.78;5017632;28;20152;-59
2022/09/28 06:23:45;;;;;;;3.92;1.58;;;;;;;8.63;nan;99495.56;5014091;28;20044;-59
2022/09/28 06:26:11;;;;;;;4.03;1.50;;;;;;;8.63;nan;99483.31;5027014;28;20056;-61
2022/09/28 06:28:36;;;;;;;2.75;1.20;;;;;;;8.60;nan;99469.50;5004590;28;20041;-57
2022/09/28 06:31:02;;;;;;;2.78;1.50;;;;;;;8.55;nan;99455.75;5020210;28;20119;-57
2022/09/28 06:33:27;;;;;;;5.55;1.92;;;;;;;8.29;nan;99413.19;5027601;28;20484;-56
2022/09/28 06:35:52;;;;;;;2.15;1.80;;;;;;;8.68;nan;99486.56;5029380;28;20037;-58
2022/09/28 06:38:18;;;;;;;2.92;1.60;;;;;;;8.46;nan;99449.97;5015885;28;20069;-61
2022/09/28 06:40:43;;;;;;;1.75;1.50;;;;;;;8.51;nan;99446.31;5023442;28;20029;-60
2022/09/28 06:43:11;;;;;;;3.17;1.75;;;;;;;8.87;nan;99492.66;5018703;28;20038;-60
2022/09/28 06:45:37;;;;;;;2.92;1.67;;;;;;;9.04;nan;99507.63;5029148;28;20038;-59
2022/09/28 06:48:03;;;;;;;5.50;1.90;;;;;;;8.84;nan;99455.25;5017912;28;20431;-58
2022/09/28 06:50:32;;;;;;;3.53;2.05;;;;;;;9.30;nan;99517.75;5031314;28;20239;-57
2022/09/28 06:52:58;;;;;;;3.88;2.05;;;;;;;9.08;nan;99464.53;5028975;28;20045;-59
2022/09/28 06:55:24;;;;;;;4.15;1.95;;;;;;;9.51;nan;99516.72;5017712;28;20050;-55
2022/09/28 06:57:59;;;;;;;5.57;1.88;;;;;;;9.69;nan;99514.09;5028823;28;20034;-60
2022/09/28 07:00:31;;;;;;;4.82;2.00;;;;;;;9.38;nan;99447.31;5020535;28;20037;-62
2022/09/28 07:02:57;;;;;;;2.35;1.73;;;;;;;9.49;nan;99458.13;5020326;28;20057;-59
2022/09/28 07:05:25;;;;;;;2.22;1.38;;;;;;;9.71;nan;99499.09;5028225;28;20068;-56
2022/09/28 07:07:57;;;;;;;2.53;1.65;;;;;;;9.40;nan;99447.22;5029065;28;20513;-64
2022/09/28 07:10:24;;;;;;;3.92;1.60;;;;;;;9.41;nan;99454.19;5023840;28;20065;-61
2022/09/28 07:12:50;;;;;;;3.22;1.55;;;;;;;9.54;nan;99474.50;5022828;28;20041;-59
2022/09/28 07:15:16;;;;;;;2.53;1.67;;;;;;;9.78;nan;99514.47;5029576;28;20558;-61
2022/09/28 07:17:42;;;;;;;2.25;1.35;;;;;;;9.56;nan;99451.66;5029502;28;20037;-59
2022/09/28 07:20:07;;;;;;;2.72;1.48;;;;;;;9.63;nan;99460.91;5017093;28;20037;-62
2022/09/28 07:22:33;;;;;;;5.82;2.08;;;;;;;9.96;nan;99518.81;5024320;28;20107;-61
2022/09/28 07:24:59;;;;;;;2.35;1.20;;;;;;;10.11;nan;99525.06;5020374;28;20400;-60
2022/09/28 07:27:25;;;;;;;5.88;1.67;;;;;;;10.29;nan;99525.94;5018844;28;20021;-59
2022/09/28 07:29:52;;;;;;;3.85;1.40;;;;;;;10.48;nan;99524.88;5019741;28;20029;-60
2022/09/28 07:32:19;;;;;;;4.95;1.67;;;;;;;10.40;nan;99482.34;5022429;28;20025;-60
2022/09/28 07:34:44;;;;;;;2.83;1.50;;;;;;;10.69;nan;99499.22;5020394;28;20038;-62
2022/09/28 07:37:12;;;;;;;3.45;1.88;;;;;;;10.97;nan;99509.97;5024957;28;20037;-60
2022/09/28 07:42:23;;;;;;;3.50;1.70;;;;;;;10.82;nan;99463.41;5019946;28;20113;-62
2022/09/28 07:44:48;;;;;;;6.60;1.38;;;;;;;11.09;nan;99513.72;5023670;28;20108;-62
2022/09/28 07:47:14;;;;;;;2.70;1.33;;;;;;;11.28;nan;99522.28;5016142;28;20109;-62
2022/09/28 07:49:39;;;;;;;3.88;1.50;;;;;;;11.42;nan;99524.97;5027219;28;20446;-61
2022/09/28 07:52:05;;;;;;;4.57;1.40;;;;;;;22.55;0.00;58178.75;5018136;28;20431;-61
2022/09/28 07:54:30;;;;;;;3.60;1.58;;;;;;;11.80;nan;99523.66;5026543;28;20033;-60
2022/09/28 07:56:56;;;;;;;3.53;1.15;;;;;;;11.89;nan;99472.19;5026622;28;20037;-62
2022/09/28 07:59:21;;;;;;;1.23;0.90;;;;;;;12.20;nan;99514.25;5018734;28;20064;-60
2022/09/28 08:01:50;;;;;;;1.38;0.70;;;;;;;12.43;nan;99537.44;5031224;28;20637;-63
2022/09/28 08:04:15;;;;;;;2.35;1.05;;;;;;;12.80;nan;99533.44;5019894;28;20096;-60
2022/09/28 08:06:41;;;;;;;1.00;0.65;;;;;;;13.10;nan;99550.97;5024440;28;20070;-63
2022/09/28 08:09:06;;;;;;;1.80;0.77;;;;;;;13.57;nan;99554.09;5026741;28;20092;-62
2022/09/28 08:11:32;;;;;;;2.00;1.08;;;;;;;14.07;nan;99562.16;5017580;28;20038;-62
2022/09/28 08:13:59;;;;;;;4.63;0.85;;;;;;;14.56;nan;99517.34;5015749;28;20045;-60
2022/09/28 08:16:24;;;;;;;0.57;0.50;;;;;;;15.50;nan;99589.34;5025070;28;20046;-62
2022/09/28 08:18:49;;;;;;;1.92;0.68;;;;;;;15.99;nan;99554.75;5023199;28;20659;-62
2022/09/28 08:23:59;;;;;;;2.45;0.60;;;;;;;16.02;nan;99559.81;5018320;28;20443;-63
2022/09/28 08:26:24;;;;;;;1.15;0.57;;;;;;;16.18;nan;99613.44;5025662;28;20038;-62
2022/09/28 08:28:50;;;;;;;2.03;0.70;;;;;;;16.06;nan;99570.09;5007296;28;20036;-62
2022/09/28 08:31:15;;;;;;;2.25;0.70;;;;;;;16.21;nan;99560.97;5018749;28;20034;-59
2022/09/28 08:33:40;;;;;;;1.92;0.65;;;;;;;16.58;nan;99598.88;5023090;28;20477;-61
2022/09/28 08:36:08;;;;;;;2.58;0.70;;;;;;;16.97;nan;99567.53;5028430;28;20040;-63
2022/09/28 08:38:33;;;;;;;2.83;0.98;;;;;;;17.32;nan;99616.97;5021980;28;20040;-61
2022/09/28 08:41:15;;;;;;;6.18;0.95;;;;;;;17.05;nan;99629.75;5021435;28;20034;-61
2022/09/28 08:43:53;;;;;;;3.53;1.30;;;;;;;16.45;nan;99639.75;5029189;28;20048;-61
2022/09/28 08:46:22;;;;;;;2.28;0.80;;;;;;;16.16;nan;99632.16;5020847;28;20483;-61
2022/09/28 08:48:54;;;;;;;2.72;0.68;;;;;;;16.04;nan;99642.81;5027288;28;20124;-61
2022/09/28 08:51:24;;;;;;;3.38;0.75;;;;;;;16.34;nan;99627.28;5028457;28;20033;-62
2022/09/28 08:54:23;;;;;;;1.52;0.50;;;;;;;16.52;nan;99647.13;5032357;28;20034;-61
2022/09/28 08:56:51;;;;;;;2.22;0.63;;;;;;;15.77;nan;99614.69;5020393;28;20397;-61
2022/09/28 08:59:24;;;;;;;1.98;0.50;;;;;;;15.57;nan;99651.56;5012262;28;20041;-64
2022/09/28 09:01:54;;;;;;;1.55;0.70;;;;;;;14.48;nan;99590.31;5014246;28;20026;-61
2022/09/28 09:04:20;;;;;;;3.72;0.50;;;;;;;14.20;nan;99641.59;5032375;28;20460;-62
2022/09/28 09:07:09;;;;;;;1.50;0.70;;;;;;;13.67;nan;99637.16;5032022;28;20034;-63
2022/09/28 09:10:13;;;;;;;1.92;0.43;;;;;;;13.19;nan;99637.59;5028792;28;20573;-62
2022/09/28 09:12:54;;;;;;;2.47;0.80;;;;;;;12.74;nan;99649.13;5013378;28;20065;-60
2022/09/28 09:15:20;;;;;;;;;;;;;;;12.38;nan;99642.44;5028154;28;20045;-64
2022/09/28 09:18:15;;;;;;;2.00;0.75;;;;;;;12.52;nan;99635.53;5033214;28;20299;-61
2022/09/28 09:20:44;;;;;;;1.85;0.55;;;;;;;13.27;nan;99619.47;5033567;28;20419;-61
2022/09/28 09:23:17;;;;;;;3.03;0.82;;;;;;;14.13;nan;99613.00;5031935;28;20033;-64
2022/09/28 09:25:53;;;;;;;1.90;1.00;;;;;;;14.51;nan;99590.13;5033409;28;20074;-61
2022/09/28 09:29:01;;;;;;;0.57;0.30;;;;;;;15.39;nan;99650.19;5027285;28;20126;-63
2022/09/28 09:31:44;;;;;;;1.52;0.57;;;;;;;16.15;nan;99666.78;5022268;28;20124;-61
2022/09/28 09:34:16;;;;;;;1.55;0.80;;;;;;;16.57;nan;99663.63;5032928;28;20041;-60
2022/09/28 09:36:47;;;;;;;1.33;0.70;;;;;;;17.42;nan;99679.09;5032423;28;20140;-60
2022/09/28 09:39:21;;;;;;;1.42;1.33;;;;;;;18.40;nan;99686.22;5032365;28;20041;-61
2022/09/28 09:41:59;;;;;;;2.13;0.60;;;;;;;19.23;nan;99699.66;5032224;28;20041;-62
2022/09/28 09:44:37;;;;;;;1.08;0.75;;;;;;;20.02;nan;99676.66;5030133;28;20459;-62
2022/09/28 09:47:06;;;;;;;1.40;0.75;;;;;;;20.36;nan;99707.41;5030574;28;20435;-61
2022/09/28 09:49:54;;;;;;;1.40;0.52;;;;;;;19.95;nan;99687.06;5031419;28;20047;-62
2022/09/28 09:52:29;;;;;;;1.13;0.57;;;;;;;18.86;nan;99626.41;5030715;28;20159;-61
2022/09/28 09:55:16;;;;;;;0.85;0.52;;;;;;;18.56;nan;99690.31;5030664;28;20057;-61
2022/09/28 09:57:50;;;;;;;1.35;0.32;;;;;;;18.14;nan;99636.06;5032028;28;20044;-60
2022/09/28 10:00:16;;;;;;;0.52;0.43;;;;;;;18.64;nan;99680.72;5030872;28;20033;-60
2022/09/28 10:02:44;;;;;;;1.00;0.43;;;;;;;19.52;nan;99689.16;5012805;28;20046;-60
2022/09/28 10:05:09;;;;;;;0.77;0.30;;;;;;;20.40;nan;99691.94;5012604;28;20034;-60
2022/09/28 10:07:45;;;;;;;1.40;0.40;;;;;;;20.36;nan;99706.56;5014955;28;20377;-65
2022/09/28 10:10:35;;;;;;;0.32;0.30;;;;;;;19.63;nan;99710.41;5029692;28;20099;-61
2022/09/28 10:13:00;;;;;;;2.60;0.32;;;;;;;18.71;nan;99649.88;5020239;28;20041;-60
2022/09/28 10:15:34;;;;;;;0.80;0.40;;;;;;;18.33;nan;99685.03;5030474;28;20057;-62
2022/09/28 10:18:05;;;;;;;0.75;0.43;;;;;;;17.67;nan;99695.81;5031380;28;20044;-61
2022/09/28 10:20:33;;;;;;;3.28;0.47;;;;;;;16.67;nan;99629.22;5030976;28;20029;-59
2022/09/28 10:23:01;;;;;;;1.20;0.60;;;;;;;16.42;nan;99643.47;5031554;28;20124;-60
2022/09/28 10:25:27;;;;;;;0.90;0.40;;;;;;;16.13;nan;99623.56;5030316;28;20512;-61
2022/09/28 10:27:54;;;;;;;2.38;0.50;;;;;;;16.20;nan;99622.97;5030438;28;20041;-62
2022/09/28 10:30:23;;;;;;;0.50;0.20;;;;;;;16.44;nan;99625.63;5030218;28;20377;-63
2022/09/28 10:32:52;;;;;;;1.60;0.40;;;;;;;17.21;nan;99686.13;5031510;28;20084;-58
2022/09/28 10:35:17;;;;;;;1.40;0.30;;;;;;;17.49;nan;99694.56;5030998;28;20075;-57
2022/09/28 10:38:05;;;;;;;2.47;0.25;;;;;;;17.05;nan;99684.75;5031749;28;20041;-60
2022/09/28 10:40:50;;;;;;;1.27;0.30;;;;;;;17.25;nan;99697.38;5031704;28;20041;-63
2022/09/28 10:43:21;;;;;;;2.47;0.40;;;;;;;17.53;nan;99696.88;5030963;28;20064;-61
2022/09/28 10:45:47;;;;;;;0.85;0.50;;;;;;;17.80;nan;99669.94;5046743;28;20044;-63
2022/09/28 10:48:17;;;;;;;2.65;0.40;;;;;;;17.83;nan;99683.81;5030147;28;20029;-64
2022/09/28 10:50:42;;;;;;;0.95;0.60;;;;;;;18.08;nan;99693.34;5046751;28;20033;-60
2022/09/28 10:53:20;;;;;;;2.08;0.50;;;;;;;17.82;nan;99687.47;5031176;28;20393;-59
2022/09/28 10:56:00;;;;;;;1.27;0.30;;;;;;;18.32;nan;99653.19;5030949;28;20452;-60
2022/09/28 10:58:40;;;;;;;1.27;0.50;;;;;;;18.53;nan;99688.75;5046359;28;20021;-60
2022/09/28 11:01:30;;;;;;;1.48;0.38;;;;;;;18.03;nan;99679.56;5029830;28;20033;-60
2022/09/28 11:04:00;;;;;;;2.22;0.40;;;;;;;17.22;nan;99623.97;5026268;28;20060;-61
2022/09/28 11:06:28;;;;;;;1.02;0.13;;;;;;;17.56;nan;99678.06;5029689;28;20037;-63
2022/09/28 11:08:59;;;;;;;3.20;0.50;;;;;;;17.22;nan;99639.09;5030778;28;20539;-63
2022/09/28 11:11:25;;;;;;;1.15;0.40;;;;;;;17.27;nan;99696.28;5030974;28;20037;-60
2022/09/28 11:14:00;;;;;;;1.67;0.40;;;;;;;16.55;nan;99608.91;5030016;28;20112;-58
2022/09/28 11:16:29;;;;;;;1.35;0.40;;;;;;;16.32;nan;99632.69;5047288;28;20468;-59
2022/09/28 11:19:25;;;;;;;1.05;0.15;;;;;;;16.02;nan;99680.13;5032430;28;20080;-63
2022/09/28 11:21:50;;;;;;;1.75;0.40;;;;;;;15.62;nan;99682.13;5032089;28;20037;-59
2022/09/28 11:24:21;;;;;;;0.38;0.22;;;;;;;14.89;nan;99614.81;5047617;28;20037;-63
2022/09/28 11:26:53;;;;;;;0.65;0.35;;;;;;;14.58;nan;99610.81;5013726;28;20068;-60
2022/09/28 11:29:22;;;;;;;2.55;0.80;;;;;;;14.71;nan;99673.53;5030541;28;20069;-62
2022/09/28 11:31:48;;;;;;;1.83;0.50;;;;;;;14.08;nan;99600.06;5031277;28;20044;-64
2022/09/28 11:34:32;;;;;;;1.98;0.40;;;;;;;13.96;nan;99601.72;5030748;28;20025;-60
2022/09/28 11:37:11;;;;;;;3.28;0.85;;;;;;;14.15;nan;99669.31;5032150;28;20041;-60
2022/09/28 11:39:36;;;;;;;1.05;0.40;;;;;;;14.02;nan;99666.63;5047530;28;20044;-60
2022/09/28 11:42:11;;;;;;;0.65;0.40;;;;;;;13.81;nan;99654.75;5031789;28;20029;-58
2022/09/28 11:44:38;;;;;;;1.45;0.57;;;;;;;13.67;nan;99665.38;5030717;28;20033;-60
2022/09/28 11:47:28;;;;;;;4.13;0.55;;;;;;;13.60;nan;99651.69;5032232;28;20040;-59
2022/09/28 11:50:05;;;;;;;3.03;0.45;;;;;;;13.16;nan;99588.44;5031780;28;20051;-60
2022/09/28 11:52:54;;;;;;;0.73;0.40;;;;;;;13.57;nan;99659.84;5030919;28;20033;-61
2022/09/28 11:55:20;;;;;;;0.65;0.45;;;;;;;13.59;nan;99652.66;5031609;28;20046;-60
2022/09/28 11:57:49;;;;;;;0.32;0.25;;;;;;;13.64;nan;99641.78;5031739;28;20087;-63
2022/09/28 12:00:19;;;;;;;1.35;0.30;;;;;;;15.06;nan;99626.94;5047054;28;20033;-59
2022/09/28 12:02:49;;;;;;;1.38;0.20;;;;;;;17.32;nan;99635.59;5047298;28;20052;-60
2022/09/28 12:05:27;;;;;;;0.70;0.20;;;;;;;18.53;nan;99678.09;5047132;28;20374;-62
2022/09/28 12:08:01;;;;;;;0.73;0.25;;;;;;;17.89;nan;99711.78;5047195;28;20040;-60
2022/09/28 12:11:00;;;;;;;2.63;0.38;;;;;;;17.81;nan;99703.53;5030505;28;20030;-59
2022/09/28 12:13:28;;;;;;;1.80;0.30;;;;;;;17.69;nan;99685.88;5031514;28;20443;-60
2022/09/28 12:16:03;;;;;;;2.25;0.40;;;;;;;17.27;nan;99700.75;5046888;28;20050;-60